createdAt,value
2017-12-05T00:00:47.757Z,90.00
2017-12-05T00:03:15.768Z,90.00
2017-12-05T00:05:43.781Z,90.10
2017-12-05T00:08:12.618Z,90.10
2017-12-05T00:10:40.643Z,90.10
2017-12-05T00:13:09.439Z,90.10
2017-12-05T00:15:37.479Z,90.00
2017-12-05T00:18:05.483Z,89.70
2017-12-05T00:20:33.476Z,89.70
2017-12-05T00:23:01.578Z,89.30
2017-12-05T00:25:30.345Z,89.50
2017-12-05T00:27:58.351Z,89.70
2017-12-05T00:30:26.401Z,89.20
2017-12-05T00:32:54.404Z,89.60
2017-12-05T00:35:22.403Z,89.60
2017-12-05T00:37:50.447Z,89.60
2017-12-05T00:40:18.445Z,89.70
2017-12-05T00:42:46.449Z,89.70
2017-12-05T00:45:14.503Z,89.60
2017-12-05T00:47:42.515Z,90.00
2017-12-05T00:50:10.557Z,90.00
2017-12-05T00:52:38.616Z,89.70
2017-12-05T00:55:07.373Z,89.60
2017-12-05T00:57:35.378Z,89.60
2017-12-05T01:00:04.317Z,89.40
2017-12-05T01:02:32.376Z,89.30
2017-12-05T01:05:01.167Z,90.00
2017-12-05T01:07:29.230Z,89.10
2017-12-05T01:09:57.288Z,89.90
2017-12-05T01:12:25.334Z,89.40
2017-12-05T01:14:54.162Z,89.50
2017-12-05T01:17:22.195Z,89.40
2017-12-05T01:19:50.286Z,89.40
2017-12-05T01:22:18.322Z,89.30
2017-12-05T01:24:46.358Z,89.10
2017-12-05T01:27:14.418Z,88.70
2017-12-05T01:29:42.454Z,89.00
2017-12-05T01:32:10.506Z,89.30
2017-12-05T01:34:38.547Z,88.90
2017-12-05T01:37:06.635Z,89.10
2017-12-05T01:39:34.675Z,88.80
2017-12-05T01:42:02.718Z,88.40
2017-12-05T01:44:30.771Z,89.00
2017-12-05T01:46:58.811Z,89.40
2017-12-05T01:49:26.900Z,89.40
2017-12-05T01:51:55.702Z,90.00
2017-12-05T01:54:24.559Z,89.50
2017-12-05T01:56:52.627Z,89.30
2017-12-05T01:59:20.675Z,89.80
2017-12-05T02:01:49.494Z,89.40
2017-12-05T02:04:17.563Z,89.40
2017-12-05T02:06:46.416Z,89.40
2017-12-05T02:09:14.459Z,89.30
2017-12-05T02:11:42.537Z,89.60
2017-12-05T02:14:10.578Z,89.20
2017-12-05T02:16:38.618Z,89.10
2017-12-05T02:19:06.691Z,88.90
2017-12-05T02:21:35.503Z,89.00
2017-12-05T02:24:03.574Z,88.90
2017-12-05T02:26:32.371Z,89.30
2017-12-05T02:29:01.302Z,89.30
2017-12-05T02:31:29.344Z,89.30
2017-12-05T02:33:57.376Z,88.50
2017-12-05T02:36:25.489Z,88.00
2017-12-05T02:38:53.484Z,88.10
2017-12-05T02:41:21.655Z,88.00
2017-12-05T02:43:49.683Z,88.20
2017-12-05T02:46:17.722Z,88.10
2017-12-05T02:48:45.794Z,88.20
2017-12-05T02:51:15.470Z,87.90
2017-12-05T02:53:44.354Z,88.20
2017-12-05T02:56:12.423Z,88.20
2017-12-05T02:58:40.458Z,88.50
2017-12-05T03:01:08.537Z,88.90
2017-12-05T03:03:37.345Z,88.40
2017-12-05T03:06:05.431Z,88.40
2017-12-05T03:08:33.458Z,88.70
2017-12-05T03:11:01.508Z,88.30
2017-12-05T03:13:29.550Z,88.00
2017-12-05T03:15:57.602Z,87.90
2017-12-05T03:18:25.691Z,89.20
2017-12-05T03:20:53.745Z,88.60
2017-12-05T03:23:21.783Z,88.90
2017-12-05T03:25:49.841Z,88.50
2017-12-05T03:28:17.867Z,89.30
2017-12-05T03:30:46.683Z,89.50
2017-12-05T03:33:14.725Z,89.40
2017-12-05T03:35:42.799Z,89.50
2017-12-05T03:38:10.838Z,89.60
2017-12-05T03:40:38.878Z,89.60
2017-12-05T03:43:07.426Z,89.50
2017-12-05T03:45:35.463Z,89.30
2017-12-05T03:48:03.542Z,89.50
2017-12-05T03:50:31.569Z,89.90
2017-12-05T03:52:59.618Z,89.90
2017-12-05T03:55:27.678Z,89.60
2017-12-05T03:57:55.719Z,90.00
2017-12-05T04:00:23.923Z,90.30
2017-12-05T04:02:51.967Z,90.10
2017-12-05T04:05:20.812Z,90.30
2017-12-05T04:07:49.590Z,90.20
2017-12-05T04:10:17.634Z,90.20
2017-12-05T04:12:48.659Z,90.10
2017-12-05T04:15:16.686Z,90.10
2017-12-05T04:17:45.497Z,89.90
2017-12-05T04:20:14.318Z,90.00
2017-12-05T04:22:42.362Z,90.00
2017-12-05T04:25:10.453Z,90.30
2017-12-05T04:27:38.516Z,90.40
2017-12-05T04:30:06.555Z,90.40
2017-12-05T04:32:34.603Z,90.40
2017-12-05T04:35:02.654Z,90.30
2017-12-05T04:37:30.698Z,90.50
2017-12-05T04:39:58.730Z,90.40
2017-12-05T04:42:26.782Z,91.00
2017-12-05T04:44:54.854Z,91.00
2017-12-05T04:47:23.018Z,90.80
2017-12-05T04:49:51.034Z,90.60
2017-12-05T04:52:19.076Z,90.90
2017-12-05T04:54:47.137Z,90.90
2017-12-05T04:57:15.242Z,90.70
2017-12-05T04:59:43.592Z,90.60
2017-12-05T05:02:11.609Z,90.60
2017-12-05T05:04:39.664Z,90.80
2017-12-05T05:07:07.718Z,91.00
2017-12-05T05:09:35.767Z,91.20
2017-12-05T05:12:03.869Z,91.10
2017-12-05T05:14:31.861Z,91.00
2017-12-05T05:16:59.942Z,91.00
2017-12-05T05:19:28.742Z,90.70
2017-12-05T05:21:57.558Z,90.80
2017-12-05T05:24:25.622Z,90.80
2017-12-05T05:26:54.507Z,91.10
2017-12-05T05:29:22.592Z,91.00
2017-12-05T05:31:50.634Z,91.00
2017-12-05T05:34:18.677Z,90.90
2017-12-05T05:36:47.491Z,91.10
2017-12-05T05:39:15.533Z,91.10
2017-12-05T05:41:43.596Z,91.00
2017-12-05T05:44:11.651Z,91.00
2017-12-05T05:46:39.699Z,90.80
2017-12-05T05:49:07.792Z,90.70
2017-12-05T05:51:35.815Z,90.80
2017-12-05T05:54:03.886Z,90.50
2017-12-05T05:56:31.937Z,90.70
2017-12-05T05:58:59.978Z,90.50
2017-12-05T06:01:28.026Z,90.70
2017-12-05T06:03:56.063Z,90.60
2017-12-05T06:06:24.150Z,90.60
2017-12-05T06:08:52.202Z,90.50
2017-12-05T06:11:20.247Z,90.50
2017-12-05T06:13:48.350Z,90.50
2017-12-05T06:16:17.139Z,90.40
2017-12-05T06:18:46.076Z,90.30
2017-12-05T06:21:14.118Z,90.20
2017-12-05T06:23:42.155Z,90.60
2017-12-05T06:26:10.249Z,90.60
2017-12-05T06:28:38.266Z,90.30
2017-12-05T06:31:07.108Z,90.10
2017-12-05T06:33:35.150Z,90.10
2017-12-05T06:36:03.183Z,90.30
2017-12-05T06:38:31.238Z,90.10
2017-12-05T06:40:59.272Z,90.10
2017-12-05T06:43:27.343Z,90.10
2017-12-05T06:45:55.382Z,90.30
2017-12-05T06:48:24.182Z,90.60
2017-12-05T06:50:52.999Z,90.20
2017-12-05T06:53:21.042Z,90.20
2017-12-05T06:55:49.111Z,90.40
2017-12-05T06:58:17.207Z,90.40
2017-12-05T07:00:45.230Z,90.30
2017-12-05T07:03:13.293Z,90.00
2017-12-05T07:05:41.349Z,90.00
2017-12-05T07:08:09.424Z,89.90
2017-12-05T07:10:37.458Z,89.60
2017-12-05T07:13:06.758Z,89.60
2017-12-05T07:15:35.555Z,89.50
2017-12-05T07:18:03.597Z,89.50
2017-12-05T07:20:31.643Z,89.20
2017-12-05T07:23:00.450Z,90.10
2017-12-05T07:25:28.531Z,90.10
2017-12-05T07:27:57.323Z,89.80
2017-12-05T07:30:26.126Z,90.30
2017-12-05T07:32:54.954Z,90.30
2017-12-05T07:35:22.998Z,90.30
2017-12-05T07:37:51.075Z,90.10
2017-12-05T07:40:19.110Z,90.10
2017-12-05T07:42:47.209Z,89.80
2017-12-05T07:45:16.002Z,90.10
2017-12-05T07:47:44.040Z,90.10
2017-12-05T07:50:12.147Z,90.80
2017-12-05T07:52:40.240Z,90.70
2017-12-05T07:55:08.283Z,90.60
2017-12-05T07:57:37.174Z,90.80
2017-12-05T08:00:05.436Z,90.80
2017-12-05T08:02:33.502Z,90.50
2017-12-05T08:05:01.547Z,90.70
2017-12-05T08:07:29.590Z,90.60
2017-12-05T08:09:57.634Z,90.60
2017-12-05T08:12:25.666Z,90.30
2017-12-05T08:14:54.618Z,90.40
2017-12-05T08:17:23.428Z,90.50
2017-12-05T08:19:52.239Z,90.40
2017-12-05T08:22:20.408Z,90.30
2017-12-05T08:24:49.207Z,90.70
2017-12-05T08:27:18.060Z,90.20
2017-12-05T08:29:46.099Z,90.10
2017-12-05T08:32:14.182Z,90.20
2017-12-05T08:34:43.023Z,90.10
2017-12-05T08:37:11.122Z,90.00
2017-12-05T08:39:39.158Z,89.50
2017-12-05T08:42:07.966Z,89.70
2017-12-05T08:44:36.017Z,89.60
2017-12-05T08:47:04.054Z,90.10
2017-12-05T08:49:32.112Z,89.90
2017-12-05T08:52:00.915Z,88.70
2017-12-05T08:54:29.743Z,89.00
2017-12-05T08:56:57.778Z,89.00
2017-12-05T08:59:25.882Z,89.10
2017-12-05T09:01:54.687Z,87.50
2017-12-05T09:04:23.495Z,88.10
2017-12-05T09:06:51.546Z,88.90
2017-12-05T09:09:19.587Z,88.40
2017-12-05T09:11:47.658Z,87.70
2017-12-05T09:14:15.702Z,87.10
2017-12-05T09:16:43.735Z,87.20
2017-12-05T09:19:11.806Z,87.10
2017-12-05T09:21:39.843Z,87.00
2017-12-05T09:24:07.918Z,87.10
2017-12-05T09:26:35.959Z,87.50
2017-12-05T09:29:03.995Z,87.40
2017-12-05T09:31:32.059Z,85.60
2017-12-05T09:34:00.103Z,86.20
2017-12-05T09:36:28.936Z,86.40
2017-12-05T09:38:56.977Z,86.40
2017-12-05T09:41:25.797Z,85.70
2017-12-05T09:43:53.844Z,85.60
2017-12-05T09:46:21.898Z,85.40
2017-12-05T09:48:49.939Z,84.50
2017-12-05T09:51:17.984Z,84.50
2017-12-05T09:53:46.050Z,85.20
2017-12-05T09:56:14.104Z,85.60
2017-12-05T09:58:42.173Z,85.40
2017-12-05T10:01:10.202Z,85.40
2017-12-05T10:03:38.238Z,85.40
2017-12-05T10:06:06.390Z,85.40
2017-12-05T10:08:34.431Z,85.40
2017-12-05T10:11:02.503Z,84.90
2017-12-05T10:13:30.547Z,85.40
2017-12-05T10:15:59.366Z,85.40
2017-12-05T10:18:28.194Z,85.40
2017-12-05T10:20:56.226Z,85.40
2017-12-05T10:23:24.302Z,85.40
2017-12-05T10:25:52.654Z,85.40
2017-12-05T10:28:20.691Z,86.10
2017-12-05T10:30:48.758Z,85.60
2017-12-05T10:33:22.340Z,83.90
2017-12-05T10:35:57.107Z,84.70
2017-12-05T10:38:25.099Z,84.80
2017-12-05T10:40:53.140Z,85.60
2017-12-05T10:43:21.200Z,85.60
2017-12-05T10:45:50.006Z,84.80
2017-12-05T10:48:20.227Z,84.60
2017-12-05T10:50:49.019Z,84.90
2017-12-05T10:53:17.090Z,84.20
2017-12-05T10:55:45.220Z,84.50
2017-12-05T11:00:47.351Z,84.80
2017-12-05T11:03:17.070Z,83.60
2017-12-05T11:05:45.123Z,82.70
2017-12-05T11:08:18.335Z,83.20
2017-12-05T11:10:47.209Z,83.80
2017-12-05T11:13:16.616Z,83.70
2017-12-05T11:15:44.676Z,82.70
2017-12-05T11:18:12.762Z,83.10
2017-12-05T11:20:40.847Z,83.40
2017-12-05T11:23:08.847Z,83.10
2017-12-05T11:25:37.011Z,83.10
2017-12-05T11:28:05.030Z,84.10
2017-12-05T11:30:33.203Z,83.90
2017-12-05T11:33:02.477Z,84.30
2017-12-05T11:35:30.514Z,83.80
2017-12-05T11:37:58.575Z,84.30
2017-12-05T11:40:26.623Z,84.30
2017-12-05T11:42:54.690Z,83.10
2017-12-05T11:45:23.482Z,84.00
2017-12-05T11:47:52.274Z,83.90
2017-12-05T11:50:20.325Z,83.70
2017-12-05T11:52:48.363Z,83.70
2017-12-05T11:55:17.198Z,85.60
2017-12-05T11:57:45.226Z,85.50
2017-12-05T12:00:15.008Z,83.70
2017-12-05T12:02:43.097Z,82.10
2017-12-05T12:05:13.783Z,82.70
2017-12-05T12:07:42.355Z,84.70
2017-12-05T12:10:10.404Z,84.00
2017-12-05T12:12:40.347Z,83.90
2017-12-05T12:15:08.390Z,83.70
2017-12-05T12:17:37.279Z,83.80
2017-12-05T12:20:06.494Z,84.70
2017-12-05T12:22:34.539Z,83.00
2017-12-05T12:25:03.331Z,81.80
2017-12-05T12:27:31.370Z,82.40
2017-12-05T12:30:00.163Z,81.80
2017-12-05T12:32:28.240Z,81.70
2017-12-05T12:34:56.278Z,81.50
2017-12-05T12:37:24.299Z,81.40
2017-12-05T12:39:52.355Z,81.10
2017-12-05T12:42:20.394Z,81.50
2017-12-05T12:44:49.217Z,82.00
2017-12-05T12:47:17.240Z,82.00
2017-12-05T12:49:45.270Z,81.80
2017-12-05T12:52:14.204Z,82.10
2017-12-05T12:54:42.230Z,82.00
2017-12-05T12:57:10.307Z,80.80
2017-12-05T12:59:38.342Z,80.80
2017-12-05T13:02:06.379Z,80.70
2017-12-05T13:04:34.418Z,80.90
2017-12-05T13:07:02.455Z,80.10
2017-12-05T13:09:31.323Z,80.00
2017-12-05T13:11:59.386Z,79.80
2017-12-05T13:14:27.418Z,80.30
2017-12-05T13:16:55.531Z,79.40
2017-12-05T13:19:24.323Z,79.10
2017-12-05T13:21:52.407Z,79.10
2017-12-05T13:24:21.260Z,80.10
2017-12-05T13:26:50.004Z,79.60
2017-12-05T13:29:18.814Z,78.90
2017-12-05T13:31:47.608Z,78.00
2017-12-05T13:34:16.445Z,77.50
2017-12-05T13:36:44.474Z,77.50
2017-12-05T13:39:12.508Z,78.60
2017-12-05T13:41:40.566Z,79.30
2017-12-05T13:44:09.367Z,78.30
2017-12-05T13:46:38.199Z,78.60
2017-12-05T13:49:06.243Z,78.60
2017-12-05T13:51:35.068Z,79.20
2017-12-05T13:54:03.871Z,80.40
2017-12-05T13:56:31.903Z,81.00
2017-12-05T13:58:59.956Z,80.10
2017-12-05T14:01:27.989Z,79.20
2017-12-05T14:03:56.026Z,79.20
2017-12-05T14:06:24.077Z,79.00
2017-12-05T14:08:52.870Z,80.20
2017-12-05T14:11:21.723Z,79.30
2017-12-05T14:13:49.759Z,79.30
2017-12-05T14:16:18.563Z,79.80
2017-12-05T14:18:47.035Z,79.80
2017-12-05T14:21:15.139Z,79.90
2017-12-05T14:23:43.213Z,79.60
2017-12-05T14:26:11.272Z,79.40
2017-12-05T14:28:39.291Z,79.30
2017-12-05T14:31:08.115Z,79.80
2017-12-05T14:33:36.156Z,79.70
2017-12-05T14:36:04.229Z,79.60
2017-12-05T14:38:32.270Z,80.00
2017-12-05T14:41:00.286Z,80.10
2017-12-05T14:43:28.348Z,79.50
2017-12-05T14:45:56.419Z,79.10
2017-12-05T14:48:24.611Z,79.60
2017-12-05T14:50:52.635Z,79.70
2017-12-05T14:53:21.459Z,78.90
2017-12-05T14:55:50.278Z,79.10
2017-12-05T14:58:18.357Z,79.10
2017-12-05T15:00:47.200Z,79.90
2017-12-05T15:03:15.236Z,79.80
2017-12-05T15:05:44.055Z,80.20
2017-12-05T15:08:12.887Z,80.20
2017-12-05T15:10:43.711Z,80.30
2017-12-05T15:13:11.823Z,81.20
2017-12-05T15:15:39.856Z,80.30
2017-12-05T15:18:07.881Z,81.00
2017-12-05T15:20:44.031Z,80.70
2017-12-05T15:23:12.062Z,81.20
2017-12-05T15:25:40.187Z,80.80
2017-12-05T15:28:08.982Z,81.50
2017-12-05T15:30:37.775Z,80.90
2017-12-05T15:33:06.147Z,80.80
2017-12-05T15:35:34.172Z,80.70
2017-12-05T15:38:03.015Z,80.90
2017-12-05T15:40:31.055Z,80.80
2017-12-05T15:42:59.851Z,80.70
2017-12-05T15:45:28.674Z,80.10
2017-12-05T15:47:56.715Z,80.00
2017-12-05T15:50:25.564Z,81.50
2017-12-05T15:52:53.639Z,81.30
2017-12-05T15:55:22.414Z,81.70
2017-12-05T15:57:50.474Z,81.60
2017-12-05T16:00:18.515Z,81.60
2017-12-05T16:02:46.852Z,81.60
2017-12-05T16:05:14.927Z,81.30
2017-12-05T16:07:43.022Z,81.20
2017-12-05T16:10:11.078Z,81.20
2017-12-05T16:12:39.116Z,81.50
2017-12-05T16:15:07.946Z,81.40
2017-12-05T16:17:35.979Z,81.40
2017-12-05T16:20:04.808Z,81.60
2017-12-05T16:22:33.637Z,81.80
2017-12-05T16:25:01.675Z,81.70
2017-12-05T16:27:29.760Z,81.80
2017-12-05T16:29:57.809Z,81.50
2017-12-05T16:32:25.830Z,82.40
2017-12-05T16:34:53.886Z,82.10
2017-12-05T16:37:21.921Z,82.50
2017-12-05T16:39:49.971Z,82.00
2017-12-05T16:42:18.014Z,82.10
2017-12-05T16:44:46.113Z,82.00
2017-12-05T16:47:14.240Z,82.00
2017-12-05T16:49:43.084Z,82.50
2017-12-05T16:52:11.140Z,82.50
2017-12-05T16:54:39.955Z,81.40
2017-12-05T16:57:08.031Z,81.40
2017-12-05T16:59:36.072Z,81.70
2017-12-05T17:02:04.111Z,82.20
2017-12-05T17:04:32.179Z,82.20
2017-12-05T17:07:00.971Z,82.30
2017-12-05T17:09:29.815Z,81.80
2017-12-05T17:11:57.863Z,81.70
2017-12-05T17:14:26.686Z,81.80
2017-12-05T17:16:54.730Z,81.70
2017-12-05T17:19:22.767Z,81.80
2017-12-05T17:21:50.844Z,82.10
2017-12-05T17:24:18.882Z,82.30
2017-12-05T17:26:46.920Z,82.60
2017-12-05T17:29:14.973Z,82.30
2017-12-05T17:31:43.853Z,82.00
2017-12-05T17:34:11.956Z,82.00
2017-12-05T17:36:40.786Z,81.80
2017-12-05T17:39:08.811Z,81.80
2017-12-05T17:41:36.875Z,81.80
2017-12-05T17:44:05.414Z,80.90
2017-12-05T17:46:36.189Z,81.10
2017-12-05T17:49:04.214Z,81.10
2017-12-05T17:51:32.259Z,81.70
2017-12-05T17:54:00.326Z,81.60
2017-12-05T17:56:28.373Z,81.00
2017-12-05T17:58:56.447Z,81.00
2017-12-05T18:01:24.475Z,81.70
2017-12-05T18:03:53.262Z,80.60
2017-12-05T18:06:22.085Z,80.30
2017-12-05T18:08:50.118Z,80.30
2017-12-05T18:11:18.179Z,80.90
2017-12-05T18:13:46.234Z,81.10
2017-12-05T18:16:14.340Z,83.40
2017-12-05T18:18:42.370Z,83.00
2017-12-05T18:21:11.195Z,80.70
2017-12-05T18:23:40.015Z,80.90
2017-12-05T18:26:08.069Z,80.90
2017-12-05T18:28:36.124Z,82.60
2017-12-05T18:31:04.172Z,81.10
2017-12-05T18:33:34.325Z,81.40
2017-12-05T18:36:02.359Z,81.50
2017-12-05T18:38:31.171Z,81.80
2017-12-05T18:40:59.231Z,81.80
2017-12-05T18:43:28.038Z,81.80
2017-12-05T18:45:57.775Z,81.70
2017-12-05T18:48:26.571Z,81.20
2017-12-05T18:50:55.428Z,82.10
2017-12-05T18:53:25.024Z,81.90
2017-12-05T18:55:53.055Z,81.80
2017-12-05T18:58:21.132Z,81.80
2017-12-05T19:00:49.166Z,81.80
2017-12-05T19:03:17.231Z,81.50
2017-12-05T19:05:46.067Z,81.90
2017-12-05T19:08:14.103Z,81.80
2017-12-05T19:10:42.926Z,82.00
2017-12-05T19:13:13.109Z,82.00
2017-12-05T19:15:41.156Z,82.60
2017-12-05T19:18:09.183Z,82.10
2017-12-05T19:20:37.289Z,82.00
2017-12-05T19:23:06.106Z,83.30
2017-12-05T19:25:34.883Z,82.00
2017-12-05T19:28:02.963Z,82.00
2017-12-05T19:30:33.843Z,81.70
2017-12-05T19:33:04.837Z,81.80
2017-12-05T19:35:32.867Z,81.70
2017-12-05T19:38:01.667Z,82.50
2017-12-05T19:40:30.486Z,81.60
2017-12-05T19:42:58.527Z,81.50
2017-12-05T19:45:26.599Z,81.60
2017-12-05T19:47:54.643Z,81.70
2017-12-05T19:50:22.710Z,81.60
2017-12-05T19:52:50.785Z,81.60
2017-12-05T19:55:18.858Z,81.40
2017-12-05T19:57:46.911Z,81.60
2017-12-05T20:00:15.011Z,81.50
2017-12-05T20:02:43.055Z,81.60
2017-12-05T20:05:11.770Z,80.80
2017-12-05T20:07:40.867Z,81.00
2017-12-05T20:10:08.922Z,81.60
2017-12-05T20:12:37.727Z,80.40
2017-12-05T20:15:06.582Z,81.00
2017-12-05T20:17:34.623Z,81.00
2017-12-05T20:20:02.663Z,81.00
2017-12-05T20:22:32.393Z,80.90
2017-12-05T20:25:00.473Z,80.80
2017-12-05T20:27:28.520Z,81.40
2017-12-05T20:30:00.892Z,80.90
2017-12-05T20:32:28.987Z,81.40
2017-12-05T20:34:57.043Z,80.60
2017-12-05T20:37:25.859Z,81.40
2017-12-05T20:39:53.906Z,81.40
2017-12-05T20:42:21.951Z,81.30
2017-12-05T20:44:50.017Z,81.20
2017-12-05T20:47:18.126Z,80.90
2017-12-05T20:49:46.255Z,80.80
2017-12-05T20:52:14.360Z,80.60
2017-12-05T20:54:43.165Z,80.40
2017-12-05T20:57:11.256Z,80.40
2017-12-05T20:59:39.327Z,82.30
2017-12-05T21:02:08.176Z,80.00
2017-12-05T21:04:36.166Z,80.00
2017-12-05T21:07:04.291Z,79.60
2017-12-05T21:09:33.171Z,80.30
2017-12-05T21:12:04.084Z,80.80
2017-12-05T21:14:38.202Z,80.70
2017-12-05T21:17:10.005Z,80.40
2017-12-05T21:19:39.916Z,80.00
2017-12-05T21:22:07.970Z,79.90
2017-12-05T21:24:36.384Z,80.20
2017-12-05T21:27:04.430Z,80.20
2017-12-05T21:29:32.506Z,80.00
2017-12-05T21:32:01.303Z,80.20
2017-12-05T21:34:29.363Z,80.00
2017-12-05T21:36:57.423Z,79.50
2017-12-05T21:39:25.470Z,79.10
2017-12-05T21:41:54.326Z,79.70
2017-12-05T21:44:22.367Z,79.70
2017-12-05T21:46:51.255Z,79.30
2017-12-05T21:49:20.053Z,78.40
2017-12-05T21:51:48.850Z,79.00
2017-12-05T21:54:16.890Z,79.00
2017-12-05T21:56:44.979Z,79.70
2017-12-05T21:59:13.043Z,78.90
2017-12-05T22:01:41.276Z,77.90
2017-12-05T22:04:09.302Z,77.40
2017-12-05T22:06:37.347Z,78.70
2017-12-05T22:09:05.392Z,78.10
2017-12-05T22:11:33.459Z,79.00
2017-12-05T22:14:01.490Z,77.20
2017-12-05T22:16:29.519Z,77.20
2017-12-05T22:18:57.572Z,77.90
2017-12-05T22:21:25.620Z,77.20
2017-12-05T22:23:53.666Z,77.40
2017-12-05T22:26:21.694Z,77.20
2017-12-05T22:28:49.768Z,77.20
2017-12-05T22:31:17.818Z,77.20
2017-12-05T22:33:45.990Z,77.20
2017-12-05T22:36:14.138Z,77.20
2017-12-05T22:38:42.166Z,77.20
2017-12-05T22:41:11.341Z,77.10
2017-12-05T22:43:39.383Z,77.10
2017-12-05T22:46:07.419Z,77.10
2017-12-05T22:48:35.463Z,77.20
2017-12-05T22:51:03.502Z,77.20
2017-12-05T22:53:32.426Z,76.70
2017-12-05T22:56:00.461Z,76.60
2017-12-05T22:58:28.497Z,77.00
2017-12-05T23:00:56.547Z,76.40
2017-12-05T23:03:24.598Z,77.20
2017-12-05T23:05:52.651Z,77.20
2017-12-05T23:08:20.707Z,76.90
2017-12-05T23:10:49.543Z,77.80
2017-12-05T23:13:18.246Z,77.20
2017-12-05T23:15:47.352Z,76.60
2017-12-05T23:18:16.003Z,76.70
2017-12-05T23:20:44.955Z,77.90
2017-12-05T23:23:13.152Z,77.20
2017-12-05T23:25:41.293Z,77.20
2017-12-05T23:28:10.282Z,76.00
2017-12-05T23:30:38.326Z,76.40
2017-12-05T23:33:06.370Z,76.20
2017-12-05T23:35:35.235Z,75.90
2017-12-05T23:38:03.262Z,75.80
2017-12-05T23:40:31.335Z,76.00
2017-12-05T23:43:00.136Z,77.20
2017-12-05T23:45:28.934Z,76.10
2017-12-05T23:47:57.751Z,75.40
2017-12-05T23:50:26.092Z,75.40
2017-12-05T23:52:54.154Z,75.90
2017-12-05T23:55:22.197Z,75.20
2017-12-05T23:57:50.994Z,76.00
